createdAt,value
2016-09-24T00:00:01.838Z,1013.29
2016-09-24T00:01:01.862Z,1013.33
2016-09-24T00:02:01.886Z,1013.32
2016-09-24T00:03:01.908Z,1013.31
2016-09-24T00:04:01.924Z,1013.36
2016-09-24T00:05:01.949Z,1013.36
2016-09-24T00:06:01.972Z,1013.32
2016-09-24T00:07:01.996Z,1013.34
2016-09-24T00:08:02.015Z,1013.41
2016-09-24T00:09:02.041Z,1013.39
2016-09-24T00:10:02.062Z,1013.4
2016-09-24T00:11:02.081Z,1013.4
2016-09-24T00:12:02.161Z,1013.42
2016-09-24T00:13:02.147Z,1013.4
2016-09-24T00:14:02.152Z,1013.4
2016-09-24T00:15:02.172Z,1013.41
2016-09-24T00:16:02.207Z,1013.39
2016-09-24T00:17:02.217Z,1013.36
2016-09-24T00:18:02.240Z,1013.38
2016-09-24T00:19:02.257Z,1013.36
2016-09-24T00:20:02.280Z,1013.35
2016-09-24T00:21:02.301Z,1013.36
2016-09-24T00:22:02.330Z,1013.36
2016-09-24T00:23:02.345Z,1013.4
2016-09-24T00:24:02.371Z,1013.44
2016-09-24T00:25:02.402Z,1013.43
2016-09-24T00:26:02.414Z,1013.44
2016-09-24T00:27:02.437Z,1013.4
2016-09-24T00:28:02.458Z,1013.37
2016-09-24T00:29:05.523Z,1013.38
2016-09-24T00:30:02.501Z,1013.4
2016-09-24T00:31:02.524Z,1013.39
2016-09-24T00:32:02.550Z,1013.36
2016-09-24T00:33:02.569Z,1013.4
2016-09-24T00:34:02.588Z,1013.39
2016-09-24T00:35:02.617Z,1013.39
2016-09-24T00:36:02.637Z,1013.39
2016-09-24T00:37:02.657Z,1013.38
2016-09-24T00:38:02.676Z,1013.36
2016-09-24T00:39:02.695Z,1013.35
2016-09-24T00:40:02.722Z,1013.35
2016-09-24T00:41:02.742Z,1013.32
2016-09-24T00:42:02.764Z,1013.35
2016-09-24T00:43:02.786Z,1013.31
2016-09-24T00:44:02.803Z,1013.29
2016-09-24T00:45:02.825Z,1013.29
2016-09-24T00:46:02.851Z,1013.3
2016-09-24T00:47:02.873Z,1013.31
2016-09-24T00:48:02.894Z,1013.3
2016-09-24T00:49:02.917Z,1013.31
2016-09-24T00:50:02.939Z,1013.31
2016-09-24T00:51:02.960Z,1013.27
2016-09-24T00:52:02.986Z,1013.27
2016-09-24T00:53:03.000Z,1013.28
2016-09-24T00:54:03.024Z,1013.31
2016-09-24T00:55:03.045Z,1013.31
2016-09-24T00:56:03.070Z,1013.29
2016-09-24T00:57:03.089Z,1013.34
2016-09-24T00:58:03.111Z,1013.31
2016-09-24T00:59:03.132Z,1013.29
2016-09-24T01:00:03.158Z,1013.26
2016-09-24T01:01:03.176Z,1013.29
2016-09-24T01:02:03.197Z,1013.28
2016-09-24T01:03:03.222Z,1013.29
2016-09-24T01:04:03.240Z,1013.33
2016-09-24T01:05:03.263Z,1013.27
2016-09-24T01:06:03.284Z,1013.26
2016-09-24T01:07:03.310Z,1013.28
2016-09-24T01:08:03.332Z,1013.27
2016-09-24T01:09:03.355Z,1013.26
2016-09-24T01:10:03.370Z,1013.31
2016-09-24T01:11:03.393Z,1013.31
2016-09-24T01:12:03.416Z,1013.28
2016-09-24T01:13:03.438Z,1013.32
2016-09-24T01:14:03.461Z,1013.26
2016-09-24T01:15:03.482Z,1013.29
2016-09-24T01:16:03.505Z,1013.26
2016-09-24T01:17:03.522Z,1013.27
2016-09-24T01:18:03.548Z,1013.25
2016-09-24T01:19:03.567Z,1013.28
2016-09-24T01:20:03.591Z,1013.31
2016-09-24T01:21:03.609Z,1013.29
2016-09-24T01:22:03.634Z,1013.29
2016-09-24T01:23:03.657Z,1013.31
2016-09-24T01:24:03.673Z,1013.34
2016-09-24T01:25:03.696Z,1013.32
2016-09-24T01:26:03.717Z,1013.3
2016-09-24T01:27:03.737Z,1013.33
2016-09-24T01:28:03.763Z,1013.34
2016-09-24T01:29:03.782Z,1013.37
2016-09-24T01:30:03.807Z,1013.38
2016-09-24T01:31:03.828Z,1013.4
2016-09-24T01:32:03.848Z,1013.4
2016-09-24T01:33:03.866Z,1013.44
2016-09-24T01:34:03.893Z,1013.41
2016-09-24T01:35:03.910Z,1013.45
2016-09-24T01:36:03.942Z,1013.41
2016-09-24T01:37:03.955Z,1013.43
2016-09-24T01:38:03.975Z,1013.44
2016-09-24T01:39:03.996Z,1013.43
2016-09-24T01:40:04.021Z,1013.41
2016-09-24T01:41:04.039Z,1013.42
2016-09-24T01:42:04.064Z,1013.42
2016-09-24T01:43:04.084Z,1013.44
2016-09-24T01:44:04.107Z,1013.45
2016-09-24T01:45:04.125Z,1013.45
2016-09-24T01:46:04.145Z,1013.49
2016-09-24T01:47:04.169Z,1013.49
2016-09-24T01:48:04.193Z,1013.44
2016-09-24T01:49:04.210Z,1013.48
2016-09-24T01:50:04.236Z,1013.5
2016-09-24T01:51:04.252Z,1013.45
2016-09-24T01:52:04.281Z,1013.51
2016-09-24T01:53:04.296Z,1013.49
2016-09-24T01:54:04.321Z,1013.5
2016-09-24T01:55:04.338Z,1013.43
2016-09-24T01:56:04.364Z,1013.46
2016-09-24T01:57:04.387Z,1013.45
2016-09-24T01:58:04.405Z,1013.49
2016-09-24T01:59:04.424Z,1013.48
2016-09-24T02:00:04.445Z,1013.48
2016-09-24T02:01:04.618Z,1013.5
2016-09-24T02:02:04.488Z,1013.48
2016-09-24T02:03:04.510Z,1013.51
2016-09-24T02:04:04.531Z,1013.51
2016-09-24T02:05:04.554Z,1013.58
2016-09-24T02:06:04.574Z,1013.57
2016-09-24T02:07:04.594Z,1013.61
2016-09-24T02:08:04.615Z,1013.59
2016-09-24T02:09:04.636Z,1013.6
2016-09-24T02:10:04.662Z,1013.58
2016-09-24T02:11:04.680Z,1013.55
2016-09-24T02:12:04.703Z,1013.57
2016-09-24T02:13:04.722Z,1013.54
2016-09-24T02:14:04.743Z,1013.53
2016-09-24T02:15:04.765Z,1013.57
2016-09-24T02:16:04.784Z,1013.59
2016-09-24T02:17:04.806Z,1013.61
2016-09-24T02:18:04.827Z,1013.59
2016-09-24T02:19:04.849Z,1013.59
2016-09-24T02:20:04.872Z,1013.58
2016-09-24T02:21:04.894Z,1013.61
2016-09-24T02:22:04.912Z,1013.61
2016-09-24T02:23:04.933Z,1013.59
2016-09-24T02:24:04.954Z,1013.62
2016-09-24T02:25:04.976Z,1013.65
2016-09-24T02:26:04.996Z,1013.58
2016-09-24T02:27:05.018Z,1013.57
2016-09-24T02:28:05.043Z,1013.59
2016-09-24T02:29:05.064Z,1013.56
2016-09-24T02:30:05.081Z,1013.57
2016-09-24T02:31:05.106Z,1013.58
2016-09-24T02:32:05.127Z,1013.62
2016-09-24T02:33:05.148Z,1013.6
2016-09-24T02:34:05.166Z,1013.64
2016-09-24T02:35:05.186Z,1013.6
2016-09-24T02:36:05.208Z,1013.6
2016-09-24T02:37:05.231Z,1013.59
2016-09-24T02:38:05.252Z,1013.59
2016-09-24T02:39:05.270Z,1013.59
2016-09-24T02:40:05.293Z,1013.58
2016-09-24T02:41:05.312Z,1013.6
2016-09-24T02:42:05.333Z,1013.61
2016-09-24T02:43:05.354Z,1013.58
2016-09-24T02:44:05.375Z,1013.6
2016-09-24T02:45:05.399Z,1013.62
2016-09-24T02:46:05.421Z,1013.62
2016-09-24T02:47:05.438Z,1013.6
2016-09-24T02:48:05.458Z,1013.59
2016-09-24T02:49:05.483Z,1013.56
2016-09-24T02:50:05.503Z,1013.59
2016-09-24T02:51:05.525Z,1013.54
2016-09-24T02:52:05.542Z,1013.54
2016-09-24T02:53:05.567Z,1013.56
2016-09-24T02:54:05.588Z,1013.59
2016-09-24T02:55:05.610Z,1013.59
2016-09-24T02:56:05.630Z,1013.59
2016-09-24T02:57:05.647Z,1013.59
2016-09-24T02:58:05.672Z,1013.6
2016-09-24T02:59:05.687Z,1013.58
2016-09-24T03:00:05.710Z,1013.57
2016-09-24T03:01:05.734Z,1013.55
2016-09-24T03:02:05.756Z,1013.57
2016-09-24T03:03:05.773Z,1013.61
2016-09-24T03:04:05.797Z,1013.64
2016-09-24T03:05:05.815Z,1013.67
2016-09-24T03:06:05.836Z,1013.62
2016-09-24T03:07:05.855Z,1013.65
2016-09-24T03:08:05.877Z,1013.67
2016-09-24T03:09:05.901Z,1013.66
2016-09-24T03:10:05.918Z,1013.72
2016-09-24T03:11:05.940Z,1013.7
2016-09-24T03:12:05.961Z,1013.71
2016-09-24T03:13:05.982Z,1013.74
2016-09-24T03:14:06.002Z,1013.73
2016-09-24T03:15:06.027Z,1013.78
2016-09-24T03:16:06.048Z,1013.77
2016-09-24T03:17:06.069Z,1013.76
2016-09-24T03:18:06.086Z,1013.77
2016-09-24T03:19:06.110Z,1013.78
2016-09-24T03:20:06.128Z,1013.77
2016-09-24T03:21:06.148Z,1013.77
2016-09-24T03:22:06.170Z,1013.8
2016-09-24T03:23:06.190Z,1013.77
2016-09-24T03:24:06.214Z,1013.76
2016-09-24T03:25:06.231Z,1013.77
2016-09-24T03:26:06.252Z,1013.73
2016-09-24T03:27:06.276Z,1013.72
2016-09-24T03:28:06.295Z,1013.74
2016-09-24T03:29:06.320Z,1013.77
2016-09-24T03:30:06.337Z,1013.74
2016-09-24T03:31:06.360Z,1013.74
2016-09-24T03:32:06.380Z,1013.74
2016-09-24T03:33:06.402Z,1013.7
2016-09-24T03:34:06.419Z,1013.72
2016-09-24T03:35:06.443Z,1013.79
2016-09-24T03:36:06.463Z,1013.74
2016-09-24T03:37:06.486Z,1013.73
2016-09-24T03:38:06.506Z,1013.74
2016-09-24T03:39:06.525Z,1013.72
2016-09-24T03:40:06.544Z,1013.77
2016-09-24T03:41:06.566Z,1013.76
2016-09-24T03:42:06.585Z,1013.76
2016-09-24T03:43:06.604Z,1013.76
2016-09-24T03:44:06.627Z,1013.75
2016-09-24T03:45:06.653Z,1013.74
2016-09-24T03:46:06.680Z,1013.75
2016-09-24T03:47:06.688Z,1013.75
2016-09-24T03:48:06.708Z,1013.74
2016-09-24T03:49:06.733Z,1013.76
2016-09-24T03:50:06.763Z,1013.83
2016-09-24T03:51:06.774Z,1013.78
2016-09-24T03:52:06.794Z,1013.79
2016-09-24T03:53:06.815Z,1013.78
2016-09-24T03:54:06.835Z,1013.74
2016-09-24T03:55:06.856Z,1013.84
2016-09-24T03:56:06.874Z,1013.82
2016-09-24T03:57:06.898Z,1013.81
2016-09-24T03:58:06.915Z,1013.82
2016-09-24T03:59:06.940Z,1013.75
2016-09-24T04:00:06.957Z,1013.76
2016-09-24T04:01:06.981Z,1013.81
2016-09-24T04:02:06.998Z,1013.82
2016-09-24T04:03:07.019Z,1013.8
2016-09-24T04:04:07.043Z,1013.86
2016-09-24T04:05:07.063Z,1013.86
2016-09-24T04:06:07.080Z,1013.92
2016-09-24T04:07:07.105Z,1013.87
2016-09-24T04:08:07.122Z,1013.93
2016-09-24T04:09:07.146Z,1013.88
2016-09-24T04:10:07.164Z,1013.9
2016-09-24T04:11:07.187Z,1013.91
2016-09-24T04:12:07.209Z,1013.91
2016-09-24T04:13:07.226Z,1013.94
2016-09-24T04:14:07.249Z,1013.91
2016-09-24T04:15:07.269Z,1013.87
2016-09-24T04:16:07.289Z,1013.88
2016-09-24T04:17:07.307Z,1013.87
2016-09-24T04:18:07.328Z,1013.84
2016-09-24T04:19:07.353Z,1013.85
2016-09-24T04:20:07.371Z,1013.9
2016-09-24T04:21:07.389Z,1013.9
2016-09-24T04:22:07.413Z,1013.91
2016-09-24T04:23:07.430Z,1013.89
2016-09-24T04:24:07.466Z,1013.95
2016-09-24T04:25:07.471Z,1013.94
2016-09-24T04:26:07.495Z,1013.92
2016-09-24T04:27:07.514Z,1013.95
2016-09-24T04:28:07.535Z,1013.95
2016-09-24T04:29:07.552Z,1013.95
2016-09-24T04:30:07.576Z,1013.94
2016-09-24T04:31:07.596Z,1013.9
2016-09-24T04:32:07.614Z,1013.89
2016-09-24T04:33:07.638Z,1013.88
2016-09-24T04:34:07.655Z,1013.87
2016-09-24T04:35:07.677Z,1013.84
2016-09-24T04:36:07.695Z,1013.85
2016-09-24T04:37:07.719Z,1013.84
2016-09-24T04:38:07.740Z,1013.85
2016-09-24T04:39:07.756Z,1013.93
2016-09-24T04:40:07.778Z,1013.91
2016-09-24T04:41:07.798Z,1013.86
2016-09-24T04:42:07.818Z,1013.91
2016-09-24T04:43:07.853Z,1013.89
2016-09-24T04:44:07.860Z,1013.91
2016-09-24T04:45:07.883Z,1013.88
2016-09-24T04:46:07.903Z,1013.86
2016-09-24T04:47:07.924Z,1013.86
2016-09-24T04:48:07.942Z,1013.85
2016-09-24T04:49:07.963Z,1013.85
2016-09-24T04:50:07.985Z,1013.81
2016-09-24T04:51:08.001Z,1013.85
2016-09-24T04:52:08.026Z,1013.9
2016-09-24T04:53:08.044Z,1013.86
2016-09-24T04:54:08.061Z,1013.88
2016-09-24T04:55:08.084Z,1013.84
2016-09-24T04:56:08.106Z,1013.85
2016-09-24T04:57:08.127Z,1013.86
2016-09-24T04:58:08.148Z,1013.84
2016-09-24T04:59:08.165Z,1013.83
2016-09-24T05:00:08.189Z,1013.85
2016-09-24T05:01:08.208Z,1013.88
2016-09-24T05:02:08.230Z,1013.89
2016-09-24T05:03:08.250Z,1013.91
2016-09-24T05:04:08.270Z,1013.96
2016-09-24T05:05:08.290Z,1013.94
2016-09-24T05:06:08.310Z,1013.94
2016-09-24T05:07:08.330Z,1013.97
2016-09-24T05:08:08.352Z,1014
2016-09-24T05:09:08.371Z,1013.95
2016-09-24T05:10:08.390Z,1013.98
2016-09-24T05:11:08.419Z,1013.99
2016-09-24T05:12:08.428Z,1014.02
2016-09-24T05:13:08.452Z,1014.06
2016-09-24T05:14:08.470Z,1014.05
2016-09-24T05:15:08.490Z,1014.07
2016-09-24T05:16:08.513Z,1014.06
2016-09-24T05:17:08.531Z,1014.09
2016-09-24T05:18:08.553Z,1014.12
2016-09-24T05:19:08.574Z,1014.1
2016-09-24T05:20:08.591Z,1014.11
2016-09-24T05:21:08.612Z,1014.12
2016-09-24T05:22:08.634Z,1014.12
2016-09-24T05:23:08.652Z,1014.12
2016-09-24T05:24:08.672Z,1014.14
2016-09-24T05:25:08.693Z,1014.12
2016-09-24T05:26:08.714Z,1014.13
2016-09-24T05:27:08.735Z,1014.11
2016-09-24T05:28:08.757Z,1014.1
2016-09-24T05:29:08.775Z,1014.15
2016-09-24T05:30:08.795Z,1014.11
2016-09-24T05:31:08.817Z,1014.15
2016-09-24T05:32:08.839Z,1014.17
2016-09-24T05:33:08.854Z,1014.19
2016-09-24T05:34:08.875Z,1014.18
2016-09-24T05:35:08.895Z,1014.2
2016-09-24T05:36:08.919Z,1014.21
2016-09-24T05:37:08.956Z,1014.21
2016-09-24T05:38:08.957Z,1014.22
2016-09-24T05:39:08.979Z,1014.23
2016-09-24T05:40:09.000Z,1014.23
2016-09-24T05:41:09.016Z,1014.27
2016-09-24T05:42:09.040Z,1014.25
2016-09-24T05:43:09.061Z,1014.22
2016-09-24T05:44:09.076Z,1014.21
2016-09-24T05:45:09.099Z,1014.23
2016-09-24T05:46:09.120Z,1014.29
2016-09-24T05:47:09.136Z,1014.25
2016-09-24T05:48:09.160Z,1014.26
2016-09-24T05:49:09.181Z,1014.27
2016-09-24T05:50:09.202Z,1014.25
2016-09-24T05:51:09.218Z,1014.29
2016-09-24T05:52:09.242Z,1014.31
2016-09-24T05:53:09.261Z,1014.31
2016-09-24T05:54:09.279Z,1014.31
2016-09-24T05:55:09.301Z,1014.31
2016-09-24T05:56:09.319Z,1014.31
2016-09-24T05:57:09.339Z,1014.34
2016-09-24T05:58:09.361Z,1014.3
2016-09-24T05:59:09.382Z,1014.31
2016-09-24T06:00:09.400Z,1014.34
2016-09-24T06:01:09.420Z,1014.33
2016-09-24T06:02:09.442Z,1014.35
2016-09-24T06:03:09.459Z,1014.34
2016-09-24T06:04:09.482Z,1014.37
2016-09-24T06:05:09.500Z,1014.4
2016-09-24T06:06:09.621Z,1014.35
2016-09-24T06:07:09.630Z,1014.4
2016-09-24T06:08:09.561Z,1014.46
2016-09-24T06:09:09.584Z,1014.45
2016-09-24T06:10:09.607Z,1014.46
2016-09-24T06:11:09.622Z,1014.47
2016-09-24T06:12:09.642Z,1014.49
2016-09-24T06:13:09.663Z,1014.48
2016-09-24T06:14:09.685Z,1014.54
2016-09-24T06:15:09.705Z,1014.55
2016-09-24T06:16:09.722Z,1014.49
2016-09-24T06:17:09.745Z,1014.51
2016-09-24T06:18:09.762Z,1014.51
2016-09-24T06:19:09.783Z,1014.51
2016-09-24T06:20:09.802Z,1014.54
2016-09-24T06:21:09.827Z,1014.52
2016-09-24T06:22:09.843Z,1014.54
2016-09-24T06:23:09.867Z,1014.53
2016-09-24T06:24:09.884Z,1014.55
2016-09-24T06:25:09.903Z,1014.56
2016-09-24T06:26:09.924Z,1014.57
2016-09-24T06:27:09.946Z,1014.61
2016-09-24T06:28:09.964Z,1014.57
2016-09-24T06:29:09.985Z,1014.56
2016-09-24T06:30:10.005Z,1014.6
2016-09-24T06:31:10.024Z,1014.56
2016-09-24T06:32:10.047Z,1014.54
2016-09-24T06:33:10.068Z,1014.55
2016-09-24T06:34:10.087Z,1014.57
2016-09-24T06:35:10.105Z,1014.57
2016-09-24T06:36:10.128Z,1014.56
2016-09-24T06:37:10.148Z,1014.53
2016-09-24T06:38:10.167Z,1014.6
2016-09-24T06:39:10.187Z,1014.57
2016-09-24T06:40:10.206Z,1014.57
2016-09-24T06:41:10.234Z,1014.59
2016-09-24T06:42:10.253Z,1014.57
2016-09-24T06:43:10.267Z,1014.58
2016-09-24T06:44:10.287Z,1014.63
2016-09-24T06:45:10.307Z,1014.62
2016-09-24T06:46:10.326Z,1014.62
2016-09-24T06:47:10.347Z,1014.65
2016-09-24T06:48:10.368Z,1014.64
2016-09-24T06:49:10.387Z,1014.65
2016-09-24T06:50:10.406Z,1014.65
2016-09-24T06:51:10.428Z,1014.69
2016-09-24T06:52:10.453Z,1014.72
2016-09-24T06:53:10.468Z,1014.74
2016-09-24T06:54:10.587Z,1014.67
2016-09-24T06:55:10.596Z,1014.71
2016-09-24T06:56:10.611Z,1014.7
2016-09-24T06:57:10.613Z,1014.68
2016-09-24T06:58:10.615Z,1014.68
2016-09-24T06:59:10.625Z,1014.66
2016-09-24T07:00:10.635Z,1014.71
2016-09-24T07:01:10.638Z,1014.68
2016-09-24T07:02:10.653Z,1014.7
2016-09-24T07:03:10.784Z,1014.72
2016-09-24T07:04:10.789Z,1014.72
2016-09-24T07:05:10.800Z,1014.73
2016-09-24T07:06:10.736Z,1014.73
2016-09-24T07:07:10.847Z,1014.76
2016-09-24T07:08:10.855Z,1014.8
2016-09-24T07:09:10.864Z,1014.79
2016-09-24T07:10:10.901Z,1014.76
2016-09-24T07:11:10.907Z,1014.79
2016-09-24T07:12:10.906Z,1014.77
2016-09-24T07:13:10.917Z,1014.81
2016-09-24T07:14:10.926Z,1014.77
2016-09-24T07:15:10.936Z,1014.76
2016-09-24T07:16:10.940Z,1014.8
2016-09-24T07:17:10.958Z,1014.8
2016-09-24T07:18:10.978Z,1014.76
2016-09-24T07:19:11.001Z,1014.78
2016-09-24T07:20:11.018Z,1014.75
2016-09-24T07:21:11.042Z,1014.76
2016-09-24T07:22:11.059Z,1014.76
2016-09-24T07:23:11.083Z,1014.82
2016-09-24T07:24:11.106Z,1014.76
2016-09-24T07:25:11.122Z,1014.81
2016-09-24T07:26:11.141Z,1014.8
2016-09-24T07:27:11.165Z,1014.83
2016-09-24T07:28:11.183Z,1014.82
2016-09-24T07:29:11.207Z,1014.84
2016-09-24T07:30:11.224Z,1014.84
2016-09-24T07:31:11.245Z,1014.82
2016-09-24T07:32:11.265Z,1014.86
2016-09-24T07:33:11.289Z,1014.8
2016-09-24T07:34:11.306Z,1014.83
2016-09-24T07:35:11.331Z,1014.87
2016-09-24T07:36:11.348Z,1014.8
2016-09-24T07:37:11.371Z,1014.78
2016-09-24T07:38:11.390Z,1014.79
2016-09-24T07:39:11.410Z,1014.81
2016-09-24T07:40:11.431Z,1014.84
2016-09-24T07:41:11.452Z,1014.84
2016-09-24T07:42:11.476Z,1014.86
2016-09-24T07:43:11.497Z,1014.85
2016-09-24T07:44:11.520Z,1014.85
2016-09-24T07:45:11.538Z,1014.89
2016-09-24T07:46:11.557Z,1014.88
2016-09-24T07:47:11.576Z,1014.89
2016-09-24T07:48:11.612Z,1014.85
2016-09-24T07:49:11.621Z,1014.86
2016-09-24T07:50:11.639Z,1014.85
2016-09-24T07:51:11.661Z,1014.82
2016-09-24T07:52:11.681Z,1014.81
2016-09-24T07:53:11.702Z,1014.84
2016-09-24T07:54:11.723Z,1014.84
2016-09-24T07:55:11.743Z,1014.86
2016-09-24T07:56:11.765Z,1014.86
2016-09-24T07:57:11.786Z,1014.84
2016-09-24T07:58:11.810Z,1014.85
2016-09-24T07:59:11.831Z,1014.87
2016-09-24T08:00:11.853Z,1014.85
2016-09-24T08:01:11.873Z,1014.82
2016-09-24T08:02:11.895Z,1014.87
2016-09-24T08:03:11.915Z,1014.86
2016-09-24T08:04:11.934Z,1014.88
2016-09-24T08:05:11.958Z,1014.88
2016-09-24T08:06:11.975Z,1014.87
2016-09-24T08:07:11.997Z,1014.9
2016-09-24T08:08:12.022Z,1014.91
2016-09-24T08:09:12.039Z,1014.93
2016-09-24T08:10:12.059Z,1014.95
2016-09-24T08:11:12.085Z,1014.96
2016-09-24T08:12:12.103Z,1014.95
2016-09-24T08:13:12.128Z,1014.97
2016-09-24T08:14:12.145Z,1015
2016-09-24T08:15:12.166Z,1014.99
2016-09-24T08:16:12.192Z,1014.97
2016-09-24T08:17:12.209Z,1014.99
2016-09-24T08:18:12.231Z,1015
2016-09-24T08:19:12.256Z,1014.99
2016-09-24T08:20:12.274Z,1014.99
2016-09-24T08:21:12.295Z,1014.97
2016-09-24T08:22:12.320Z,1014.97
2016-09-24T08:23:12.342Z,1014.93
2016-09-24T08:24:12.360Z,1014.97
2016-09-24T08:25:12.384Z,1014.93
2016-09-24T08:26:12.406Z,1014.92
2016-09-24T08:27:12.425Z,1014.9
2016-09-24T08:28:12.448Z,1014.89
2016-09-24T08:29:12.473Z,1014.87
2016-09-24T08:30:12.488Z,1014.89
2016-09-24T08:31:12.514Z,1014.91
2016-09-24T08:32:12.536Z,1014.86
2016-09-24T08:33:12.559Z,1014.83
2016-09-24T08:34:12.585Z,1014.89
2016-09-24T08:35:12.596Z,1014.87
2016-09-24T08:36:12.619Z,1014.87
2016-09-24T08:37:12.644Z,1014.88
2016-09-24T08:38:12.662Z,1014.85
2016-09-24T08:39:12.684Z,1014.86
2016-09-24T08:40:12.707Z,1014.86
2016-09-24T08:41:12.727Z,1014.9
2016-09-24T08:42:12.750Z,1014.9
2016-09-24T08:43:12.771Z,1014.91
2016-09-24T08:44:12.792Z,1014.91
2016-09-24T08:45:12.817Z,1014.92
2016-09-24T08:46:12.848Z,1014.92
2016-09-24T08:47:12.863Z,1014.92
2016-09-24T08:48:12.883Z,1014.92
2016-09-24T08:49:12.908Z,1014.91
2016-09-24T08:50:12.926Z,1014.85
2016-09-24T08:51:12.991Z,1014.84
2016-09-24T08:52:12.975Z,1014.85
2016-09-24T08:53:12.992Z,1014.84
2016-09-24T08:54:13.014Z,1014.86
2016-09-24T08:55:13.039Z,1014.86
2016-09-24T08:56:13.058Z,1014.9
2016-09-24T08:57:13.080Z,1014.87
2016-09-24T08:58:13.101Z,1014.87
2016-09-24T08:59:13.125Z,1014.87
2016-09-24T09:00:13.151Z,1014.84
2016-09-24T09:01:13.167Z,1014.86
2016-09-24T09:02:13.193Z,1014.84
2016-09-24T09:03:13.218Z,1014.83
2016-09-24T09:04:13.240Z,1014.84
2016-09-24T09:05:13.260Z,1014.83
2016-09-24T09:06:13.284Z,1014.86
2016-09-24T09:07:13.307Z,1014.8
2016-09-24T09:08:13.329Z,1014.81
2016-09-24T09:09:13.348Z,1014.79
2016-09-24T09:10:13.371Z,1014.81
2016-09-24T09:11:13.397Z,1014.81
2016-09-24T09:12:13.416Z,1014.77
2016-09-24T09:13:13.442Z,1014.8
2016-09-24T09:14:13.461Z,1014.82
2016-09-24T09:15:13.485Z,1014.82
2016-09-24T09:16:13.513Z,1014.83
2016-09-24T09:17:13.530Z,1014.84
2016-09-24T09:18:13.553Z,1014.84
2016-09-24T09:19:13.577Z,1014.81
2016-09-24T09:20:13.598Z,1014.82
2016-09-24T09:21:13.620Z,1014.78
2016-09-24T09:22:13.644Z,1014.73
2016-09-24T09:23:13.667Z,1014.78
2016-09-24T09:24:13.689Z,1014.73
2016-09-24T09:25:13.712Z,1014.7
2016-09-24T09:26:13.734Z,1014.68
2016-09-24T09:27:13.763Z,1014.69
2016-09-24T09:28:13.781Z,1014.7
2016-09-24T09:29:13.806Z,1014.71
2016-09-24T09:30:13.827Z,1014.7
2016-09-24T09:31:13.849Z,1014.68
2016-09-24T09:32:13.875Z,1014.71
2016-09-24T09:33:13.896Z,1014.66
2016-09-24T09:34:13.919Z,1014.69
2016-09-24T09:35:13.945Z,1014.68
2016-09-24T09:36:13.968Z,1014.71
2016-09-24T09:37:13.992Z,1014.7
2016-09-24T09:38:14.015Z,1014.72
2016-09-24T09:39:14.037Z,1014.69
2016-09-24T09:40:14.058Z,1014.7
2016-09-24T09:41:14.084Z,1014.71
2016-09-24T09:42:14.104Z,1014.71
2016-09-24T09:43:14.131Z,1014.73
2016-09-24T09:44:14.154Z,1014.73
2016-09-24T09:45:14.175Z,1014.7
2016-09-24T09:46:14.198Z,1014.71
2016-09-24T09:47:14.225Z,1014.67
2016-09-24T09:48:14.246Z,1014.68
2016-09-24T09:49:14.267Z,1014.69
2016-09-24T09:50:14.292Z,1014.68
2016-09-24T09:51:14.319Z,1014.61
2016-09-24T09:52:14.338Z,1014.65
2016-09-24T09:53:14.362Z,1014.59
2016-09-24T09:54:14.388Z,1014.65
2016-09-24T09:55:14.410Z,1014.63
2016-09-24T09:56:14.435Z,1014.6
2016-09-24T09:57:14.458Z,1014.58
2016-09-24T09:58:14.484Z,1014.62
2016-09-24T09:59:14.508Z,1014.61
2016-09-24T10:00:14.531Z,1014.59
2016-09-24T10:01:14.557Z,1014.59
2016-09-24T10:02:14.577Z,1014.57
2016-09-24T10:03:14.603Z,1014.6
2016-09-24T10:04:14.627Z,1014.61
2016-09-24T10:05:14.651Z,1014.63
2016-09-24T10:06:14.671Z,1014.6
2016-09-24T10:07:14.697Z,1014.65
2016-09-24T10:08:14.722Z,1014.69
2016-09-24T10:09:14.743Z,1014.66
2016-09-24T10:10:14.771Z,1014.62
2016-09-24T10:11:14.792Z,1014.63
2016-09-24T10:12:14.816Z,1014.62
2016-09-24T10:13:14.839Z,1014.63
2016-09-24T10:14:14.863Z,1014.65
2016-09-24T10:15:14.891Z,1014.69
2016-09-24T10:16:14.913Z,1014.65
2016-09-24T10:17:14.937Z,1014.64
2016-09-24T10:18:14.961Z,1014.63
2016-09-24T10:19:14.985Z,1014.6
2016-09-24T10:20:15.010Z,1014.63
2016-09-24T10:21:15.037Z,1014.59
2016-09-24T10:22:15.060Z,1014.56
2016-09-24T10:23:15.082Z,1014.62
2016-09-24T10:24:15.112Z,1014.56
2016-09-24T10:25:15.135Z,1014.57
2016-09-24T10:26:15.160Z,1014.57
2016-09-24T10:27:15.184Z,1014.58
2016-09-24T10:28:15.206Z,1014.58
2016-09-24T10:29:15.231Z,1014.6
2016-09-24T10:30:15.255Z,1014.56
2016-09-24T10:31:15.285Z,1014.58
2016-09-24T10:32:15.304Z,1014.59
2016-09-24T10:33:15.333Z,1014.58
2016-09-24T10:34:15.357Z,1014.57
2016-09-24T10:35:15.381Z,1014.55
2016-09-24T10:36:15.403Z,1014.59
2016-09-24T10:37:15.431Z,1014.54
2016-09-24T10:38:15.456Z,1014.55
2016-09-24T10:39:15.478Z,1014.55
2016-09-24T10:40:15.506Z,1014.56
2016-09-24T10:41:15.528Z,1014.54
2016-09-24T10:42:15.554Z,1014.48
2016-09-24T10:43:15.581Z,1014.48
2016-09-24T10:44:15.606Z,1014.47
2016-09-24T10:45:15.630Z,1014.44
2016-09-24T10:46:15.653Z,1014.46
2016-09-24T10:47:15.679Z,1014.43
2016-09-24T10:48:15.715Z,1014.41
2016-09-24T10:49:15.731Z,1014.41
2016-09-24T10:50:15.758Z,1014.38
2016-09-24T10:51:15.786Z,1014.42
2016-09-24T10:52:15.808Z,1014.43
2016-09-24T10:53:15.833Z,1014.36
2016-09-24T10:54:15.858Z,1014.41
2016-09-24T10:55:15.880Z,1014.38
2016-09-24T10:56:15.908Z,1014.38
2016-09-24T10:57:15.931Z,1014.42
2016-09-24T10:58:15.959Z,1014.39
2016-09-24T10:59:15.986Z,1014.43
2016-09-24T11:00:16.008Z,1014.42
2016-09-24T11:01:16.034Z,1014.41
2016-09-24T11:02:16.060Z,1014.35
2016-09-24T11:03:16.084Z,1014.34
2016-09-24T11:04:16.112Z,1014.31
2016-09-24T11:05:16.138Z,1014.31
2016-09-24T11:06:16.161Z,1014.32
2016-09-24T11:07:16.190Z,1014.3
2016-09-24T11:08:16.217Z,1014.31
2016-09-24T11:09:16.237Z,1014.27
2016-09-24T11:10:16.268Z,1014.25
2016-09-24T11:11:16.289Z,1014.25
2016-09-24T11:12:16.316Z,1014.22
2016-09-24T11:13:16.343Z,1014.22
2016-09-24T11:14:16.369Z,1014.2
2016-09-24T11:15:16.397Z,1014.19
2016-09-24T11:16:16.422Z,1014.18
2016-09-24T11:17:16.446Z,1014.17
2016-09-24T11:18:16.472Z,1014.13
2016-09-24T11:19:16.498Z,1014.11
2016-09-24T11:20:16.525Z,1014.1
2016-09-24T11:21:16.553Z,1014.07
2016-09-24T11:22:16.579Z,1014.07
2016-09-24T11:23:16.606Z,1014.06
2016-09-24T11:24:16.631Z,1014.08
2016-09-24T11:25:16.654Z,1014.05
2016-09-24T11:26:16.685Z,1014.03
2016-09-24T11:27:16.707Z,1014.05
2016-09-24T11:28:16.737Z,1014.07
2016-09-24T11:29:16.765Z,1014.08
2016-09-24T11:30:16.789Z,1014.05
2016-09-24T11:31:16.817Z,1014.04
2016-09-24T11:32:16.843Z,1014
2016-09-24T11:33:16.866Z,1013.99
2016-09-24T11:34:16.894Z,1013.99
2016-09-24T11:35:16.922Z,1013.99
2016-09-24T11:36:16.949Z,1013.97
2016-09-24T11:37:16.976Z,1013.97
2016-09-24T11:38:16.999Z,1013.99
2016-09-24T11:39:17.029Z,1013.97
2016-09-24T11:40:17.055Z,1013.93
2016-09-24T11:41:17.083Z,1013.96
2016-09-24T11:42:17.108Z,1013.93
2016-09-24T11:43:17.138Z,1013.95
2016-09-24T11:44:17.270Z,1013.96
2016-09-24T11:45:17.286Z,1013.99
2016-09-24T11:46:17.316Z,1013.94
2016-09-24T11:47:17.327Z,1013.94
2016-09-24T11:48:17.332Z,1013.96
2016-09-24T11:49:17.335Z,1013.94
2016-09-24T11:50:17.344Z,1013.98
2016-09-24T11:51:17.411Z,1013.97
2016-09-24T11:52:17.408Z,1013.95
2016-09-24T11:53:17.416Z,1013.91
2016-09-24T11:54:17.436Z,1013.93
2016-09-24T11:55:17.550Z,1013.91
2016-09-24T11:56:17.558Z,1013.91
2016-09-24T11:57:17.586Z,1013.9
2016-09-24T11:58:17.591Z,1013.89
2016-09-24T11:59:17.600Z,1013.91
2016-09-24T12:00:17.616Z,1013.91
2016-09-24T12:01:17.626Z,1013.9
2016-09-24T12:02:17.657Z,1013.88
2016-09-24T12:03:17.679Z,1013.87
2016-09-24T12:04:17.704Z,1013.9
2016-09-24T12:05:17.736Z,1013.92
2016-09-24T12:06:17.764Z,1013.91
2016-09-24T12:07:17.791Z,1013.9
2016-09-24T12:08:17.815Z,1013.9